sensor_id;sensor_type;location;lat;lon;timestamp;pressure;altitude;pressure_sealevel;temperature
64184;BMP280;50485;49.768;8.636;2022-08-20T00:01:40;100128.66;;;26.06
64184;BMP280;50485;49.768;8.636;2022-08-20T00:04:06;100122.41;;;26.06
64184;BMP280;50485;49.768;8.636;2022-08-20T00:06:31;100120.84;;;26.05
64184;BMP280;50485;49.768;8.636;2022-08-20T00:08:57;100124.81;;;26.04
64184;BMP280;50485;49.768;8.636;2022-08-20T00:11:23;100120.53;;;25.99
64184;BMP280;50485;49.768;8.636;2022-08-20T00:13:51;100127.22;;;25.98
64184;BMP280;50485;49.768;8.636;2022-08-20T00:16:17;100128.44;;;25.97
64184;BMP280;50485;49.768;8.636;2022-08-20T00:18:43;100133.94;;;25.97
64184;BMP280;50485;49.768;8.636;2022-08-20T00:21:09;100128.06;;;25.95
64184;BMP280;50485;49.768;8.636;2022-08-20T00:23:36;100136.75;;;25.94
64184;BMP280;50485;49.768;8.636;2022-08-20T00:26:01;100135.59;;;25.91
64184;BMP280;50485;49.768;8.636;2022-08-20T00:28:27;100143.91;;;25.88
64184;BMP280;50485;49.768;8.636;2022-08-20T00:30:52;100141.50;;;25.90
64184;BMP280;50485;49.768;8.636;2022-08-20T00:33:19;100139.94;;;25.89
64184;BMP280;50485;49.768;8.636;2022-08-20T00:35:47;100139.53;;;25.90
64184;BMP280;50485;49.768;8.636;2022-08-20T00:38:14;100138.00;;;25.86
64184;BMP280;50485;49.768;8.636;2022-08-20T00:40:41;100142.72;;;25.85
64184;BMP280;50485;49.768;8.636;2022-08-20T00:45:48;100143.16;;;25.84
64184;BMP280;50485;49.768;8.636;2022-08-20T00:48:14;100147.06;;;25.83
64184;BMP280;50485;49.768;8.636;2022-08-20T00:50:40;100151.78;;;25.82
64184;BMP280;50485;49.768;8.636;2022-08-20T00:53:05;100154.97;;;25.81
64184;BMP280;50485;49.768;8.636;2022-08-20T00:55:32;100153.41;;;25.80
64184;BMP280;50485;49.768;8.636;2022-08-20T00:57:59;100158.91;;;25.80
64184;BMP280;50485;49.768;8.636;2022-08-20T01:00:26;100163.59;;;25.79
64184;BMP280;50485;49.768;8.636;2022-08-20T01:02:52;100156.56;;;25.78
64184;BMP280;50485;49.768;8.636;2022-08-20T01:05:18;100156.56;;;25.78
64184;BMP280;50485;49.768;8.636;2022-08-20T01:07:47;100161.28;;;25.78
64184;BMP280;50485;49.768;8.636;2022-08-20T01:10:14;100160.13;;;25.75
64184;BMP280;50485;49.768;8.636;2022-08-20T01:12:41;100164.44;;;25.76
64184;BMP280;50485;49.768;8.636;2022-08-20T01:15:09;100163.66;;;25.76
64184;BMP280;50485;49.768;8.636;2022-08-20T01:17:38;100159.75;;;25.77
64184;BMP280;50485;49.768;8.636;2022-08-20T01:20:13;100168.81;;;25.73
64184;BMP280;50485;49.768;8.636;2022-08-20T01:25:37;100161.34;;;25.74
64184;BMP280;50485;49.768;8.636;2022-08-20T01:28:02;100173.50;;;25.73
64184;BMP280;50485;49.768;8.636;2022-08-20T01:30:28;100169.19;;;25.72
64184;BMP280;50485;49.768;8.636;2022-08-20T01:32:54;100175.13;;;25.70
64184;BMP280;50485;49.768;8.636;2022-08-20T01:35:20;100172.78;;;25.69
64184;BMP280;50485;49.768;8.636;2022-08-20T01:37:45;100182.63;;;25.66
64184;BMP280;50485;49.768;8.636;2022-08-20T01:40:10;100182.97;;;25.68
64184;BMP280;50485;49.768;8.636;2022-08-20T01:42:39;100179.47;;;25.68
64184;BMP280;50485;49.768;8.636;2022-08-20T01:45:07;100169.22;;;25.68
64184;BMP280;50485;49.768;8.636;2022-08-20T01:47:32;100175.16;;;25.67
64184;BMP280;50485;49.768;8.636;2022-08-20T01:49:59;100173.19;;;25.67
64184;BMP280;50485;49.768;8.636;2022-08-20T01:54:50;100181.03;;;25.65
64184;BMP280;50485;49.768;8.636;2022-08-20T01:57:16;100181.84;;;25.66
64184;BMP280;50485;49.768;8.636;2022-08-20T01:59:43;100183.00;;;25.65
64184;BMP280;50485;49.768;8.636;2022-08-20T02:02:09;100185.75;;;25.65
64184;BMP280;50485;49.768;8.636;2022-08-20T02:04:35;100185.38;;;25.66
64184;BMP280;50485;49.768;8.636;2022-08-20T02:07:01;100183.00;;;25.65
64184;BMP280;50485;49.768;8.636;2022-08-20T02:09:29;100183.00;;;25.65
64184;BMP280;50485;49.768;8.636;2022-08-20T02:11:55;100177.50;;;25.65
64184;BMP280;50485;49.768;8.636;2022-08-20T02:14:21;100184.22;;;25.64
64184;BMP280;50485;49.768;8.636;2022-08-20T02:16:47;100186.53;;;25.65
64184;BMP280;50485;49.768;8.636;2022-08-20T02:19:17;100187.75;;;25.64
64184;BMP280;50485;49.768;8.636;2022-08-20T02:21:44;100190.50;;;25.64
64184;BMP280;50485;49.768;8.636;2022-08-20T02:24:10;100191.25;;;25.65
64184;BMP280;50485;49.768;8.636;2022-08-20T02:26:36;100187.34;;;25.66
64184;BMP280;50485;49.768;8.636;2022-08-20T02:29:02;100194.41;;;25.63
64184;BMP280;50485;49.768;8.636;2022-08-20T02:31:28;100198.78;;;25.61
64184;BMP280;50485;49.768;8.636;2022-08-20T02:33:53;100201.47;;;25.64
64184;BMP280;50485;49.768;8.636;2022-08-20T02:36:19;100205.72;;;25.65
64184;BMP280;50485;49.768;8.636;2022-08-20T02:38:44;100197.50;;;25.65
64184;BMP280;50485;49.768;8.636;2022-08-20T02:41:10;100199.47;;;25.65
64184;BMP280;50485;49.768;8.636;2022-08-20T02:43:36;100195.56;;;25.66
64184;BMP280;50485;49.768;8.636;2022-08-20T02:46:02;100195.56;;;25.66
64184;BMP280;50485;49.768;8.636;2022-08-20T02:48:27;100181.84;;;25.66
64184;BMP280;50485;49.768;8.636;2022-08-20T02:50:54;100192.41;;;25.67
64184;BMP280;50485;49.768;8.636;2022-08-20T02:53:21;100190.06;;;25.66
64184;BMP280;50485;49.768;8.636;2022-08-20T02:55:46;100199.47;;;25.65
64184;BMP280;50485;49.768;8.636;2022-08-20T02:58:12;100189.28;;;25.65
64184;BMP280;50485;49.768;8.636;2022-08-20T03:00:37;100187.34;;;25.66
64184;BMP280;50485;49.768;8.636;2022-08-20T03:03:03;100196.34;;;25.66
64184;BMP280;50485;49.768;8.636;2022-08-20T03:05:28;100193.59;;;25.66
64184;BMP280;50485;49.768;8.636;2022-08-20T03:07:53;100190.06;;;25.66
64184;BMP280;50485;49.768;8.636;2022-08-20T03:10:21;100186.53;;;25.65
64184;BMP280;50485;49.768;8.636;2022-08-20T03:12:46;100186.13;;;25.67
64184;BMP280;50485;49.768;8.636;2022-08-20T03:15:11;100189.28;;;25.65
64184;BMP280;50485;49.768;8.636;2022-08-20T03:17:37;100188.88;;;25.67
64184;BMP280;50485;49.768;8.636;2022-08-20T03:20:06;100199.88;;;25.67
64184;BMP280;50485;49.768;8.636;2022-08-20T03:22:31;100182.97;;;25.68
64184;BMP280;50485;49.768;8.636;2022-08-20T03:24:57;100190.44;;;25.68
64184;BMP280;50485;49.768;8.636;2022-08-20T03:27:22;100188.88;;;25.67
64184;BMP280;50485;49.768;8.636;2022-08-20T03:29:47;100190.44;;;25.68
64184;BMP280;50485;49.768;8.636;2022-08-20T03:32:12;100189.66;;;25.67
64184;BMP280;50485;49.768;8.636;2022-08-20T03:34:38;100194.38;;;25.67
64184;BMP280;50485;49.768;8.636;2022-08-20T03:37:03;100194.75;;;25.65
64184;BMP280;50485;49.768;8.636;2022-08-20T03:39:28;100193.59;;;25.66
64184;BMP280;50485;49.768;8.636;2022-08-20T03:41:53;100192.81;;;25.66
64184;BMP280;50485;49.768;8.636;2022-08-20T03:44:19;100195.56;;;25.66
64184;BMP280;50485;49.768;8.636;2022-08-20T03:46:45;100199.09;;;25.66
64184;BMP280;50485;49.768;8.636;2022-08-20T03:49:10;100193.94;;;25.68
64184;BMP280;50485;49.768;8.636;2022-08-20T03:51:35;100195.94;;;25.68
64184;BMP280;50485;49.768;8.636;2022-08-20T03:54:00;100194.75;;;25.69
64184;BMP280;50485;49.768;8.636;2022-08-20T03:56:26;100193.19;;;25.68
64184;BMP280;50485;49.768;8.636;2022-08-20T03:58:51;100194.38;;;25.67
64184;BMP280;50485;49.768;8.636;2022-08-20T04:01:17;100190.44;;;25.68
64184;BMP280;50485;49.768;8.636;2022-08-20T04:03:42;100195.94;;;25.68
64184;BMP280;50485;49.768;8.636;2022-08-20T04:06:09;100188.44;;;25.68
64184;BMP280;50485;49.768;8.636;2022-08-20T04:08:34;100186.13;;;25.67
64184;BMP280;50485;49.768;8.636;2022-08-20T04:10:59;100197.47;;;25.69
64184;BMP280;50485;49.768;8.636;2022-08-20T04:13:26;100197.13;;;25.67
64184;BMP280;50485;49.768;8.636;2022-08-20T04:15:52;100191.63;;;25.67
64184;BMP280;50485;49.768;8.636;2022-08-20T04:18:19;100191.25;;;25.65
64184;BMP280;50485;49.768;8.636;2022-08-20T04:20:46;100197.13;;;25.67
64184;BMP280;50485;49.768;8.636;2022-08-20T04:23:12;100192.81;;;25.66
64184;BMP280;50485;49.768;8.636;2022-08-20T04:25:38;100203.38;;;25.67
64184;BMP280;50485;49.768;8.636;2022-08-20T04:28:08;100198.31;;;25.66
64184;BMP280;50485;49.768;8.636;2022-08-20T04:30:34;100206.91;;;25.68
64184;BMP280;50485;49.768;8.636;2022-08-20T04:32:59;100205.34;;;25.67
64184;BMP280;50485;49.768;8.636;2022-08-20T04:35:25;100190.84;;;25.66
64184;BMP280;50485;49.768;8.636;2022-08-20T04:38:23;100192.81;;;25.66
64184;BMP280;50485;49.768;8.636;2022-08-20T04:40:42;100200.25;;;25.65
64184;BMP280;50485;49.768;8.636;2022-08-20T04:43:28;100201.47;;;25.64
64184;BMP280;50485;49.768;8.636;2022-08-20T04:45:54;100209.28;;;25.66
64184;BMP280;50485;49.768;8.636;2022-08-20T04:48:22;100210.84;;;25.67
64184;BMP280;50485;49.768;8.636;2022-08-20T04:50:48;100206.53;;;25.66
64184;BMP280;50485;49.768;8.636;2022-08-20T04:53:14;100209.69;;;25.64
64184;BMP280;50485;49.768;8.636;2022-08-20T04:55:41;100208.91;;;25.64
64184;BMP280;50485;49.768;8.636;2022-08-20T04:58:18;100214.78;;;25.66
64184;BMP280;50485;49.768;8.636;2022-08-20T05:00:47;100209.28;;;25.66
64184;BMP280;50485;49.768;8.636;2022-08-20T05:03:13;100212.41;;;25.68
64184;BMP280;50485;49.768;8.636;2022-08-20T05:05:38;100212.03;;;25.66
64184;BMP280;50485;49.768;8.636;2022-08-20T05:08:03;100216.34;;;25.67
64184;BMP280;50485;49.768;8.636;2022-08-20T05:10:29;100220.63;;;25.68
64184;BMP280;50485;49.768;8.636;2022-08-20T05:12:54;100231.25;;;25.66
64184;BMP280;50485;49.768;8.636;2022-08-20T05:15:19;100233.56;;;25.67
64184;BMP280;50485;49.768;8.636;2022-08-20T05:17:44;100234.34;;;25.68
64184;BMP280;50485;49.768;8.636;2022-08-20T05:20:11;100235.91;;;25.69
64184;BMP280;50485;49.768;8.636;2022-08-20T05:22:37;100241.41;;;25.69
64184;BMP280;50485;49.768;8.636;2022-08-20T05:25:02;100241.75;;;25.71
64184;BMP280;50485;49.768;8.636;2022-08-20T05:27:28;100251.91;;;25.74
64184;BMP280;50485;49.768;8.636;2022-08-20T05:29:54;100248.72;;;25.76
64184;BMP280;50485;49.768;8.636;2022-08-20T05:32:24;100256.59;;;25.77
64184;BMP280;50485;49.768;8.636;2022-08-20T05:34:49;100259.34;;;25.77
64184;BMP280;50485;49.768;8.636;2022-08-20T05:37:14;100253.84;;;25.77
64184;BMP280;50485;49.768;8.636;2022-08-20T05:39:40;100257.38;;;25.78
64184;BMP280;50485;49.768;8.636;2022-08-20T05:42:06;100254.63;;;25.78
64184;BMP280;50485;49.768;8.636;2022-08-20T05:44:32;100267.13;;;25.79
64184;BMP280;50485;49.768;8.636;2022-08-20T05:46:57;100265.59;;;25.78
64184;BMP280;50485;49.768;8.636;2022-08-20T05:49:22;100260.53;;;25.76
64184;BMP280;50485;49.768;8.636;2022-08-20T05:51:48;100270.31;;;25.77
64184;BMP280;50485;49.768;8.636;2022-08-20T05:54:13;100271.50;;;25.76
64184;BMP280;50485;49.768;8.636;2022-08-20T05:56:38;100274.63;;;25.78
64184;BMP280;50485;49.768;8.636;2022-08-20T05:59:05;100265.59;;;25.78
64184;BMP280;50485;49.768;8.636;2022-08-20T06:01:31;100270.31;;;25.77
64184;BMP280;50485;49.768;8.636;2022-08-20T06:03:57;100268.34;;;25.78
64184;BMP280;50485;49.768;8.636;2022-08-20T06:06:41;100267.13;;;25.79
64184;BMP280;50485;49.768;8.636;2022-08-20T06:09:06;100272.63;;;25.79
64184;BMP280;50485;49.768;8.636;2022-08-20T06:11:31;100272.25;;;25.80
64184;BMP280;50485;49.768;8.636;2022-08-20T06:13:56;100274.56;;;25.82
64184;BMP280;50485;49.768;8.636;2022-08-20T06:16:22;100269.50;;;25.80
64184;BMP280;50485;49.768;8.636;2022-08-20T06:18:47;100269.50;;;25.80
64184;BMP280;50485;49.768;8.636;2022-08-20T06:21:13;100269.50;;;25.80
64184;BMP280;50485;49.768;8.636;2022-08-20T06:23:38;100269.50;;;25.80
64184;BMP280;50485;49.768;8.636;2022-08-20T06:26:03;100279.28;;;25.81
64184;BMP280;50485;49.768;8.636;2022-08-20T06:28:33;100278.06;;;25.82
64184;BMP280;50485;49.768;8.636;2022-08-20T06:30:58;100280.44;;;25.84
64184;BMP280;50485;49.768;8.636;2022-08-20T06:33:24;100286.31;;;25.82
64184;BMP280;50485;49.768;8.636;2022-08-20T06:35:49;100285.16;;;25.83
64184;BMP280;50485;49.768;8.636;2022-08-20T06:38:14;100289.00;;;25.86
64184;BMP280;50485;49.768;8.636;2022-08-20T06:40:39;100292.53;;;25.86
64184;BMP280;50485;49.768;8.636;2022-08-20T06:43:05;100291.75;;;25.86
64184;BMP280;50485;49.768;8.636;2022-08-20T06:45:32;100297.63;;;25.88
64184;BMP280;50485;49.768;8.636;2022-08-20T06:47:59;100290.53;;;25.90
64184;BMP280;50485;49.768;8.636;2022-08-20T06:50:26;100299.94;;;25.89
64184;BMP280;50485;49.768;8.636;2022-08-20T06:52:52;100291.69;;;25.89
64184;BMP280;50485;49.768;8.636;2022-08-20T06:55:17;100289.75;;;25.90
64184;BMP280;50485;49.768;8.636;2022-08-20T06:57:43;100295.66;;;25.88
64184;BMP280;50485;49.768;8.636;2022-08-20T07:00:10;100301.53;;;25.90
64184;BMP280;50485;49.768;8.636;2022-08-20T07:02:37;100306.56;;;25.92
64184;BMP280;50485;49.768;8.636;2022-08-20T07:05:03;100299.13;;;25.92
64184;BMP280;50485;49.768;8.636;2022-08-20T07:07:29;100306.19;;;25.93
64184;BMP280;50485;49.768;8.636;2022-08-20T07:10:07;100309.28;;;25.95
64184;BMP280;50485;49.768;8.636;2022-08-20T07:12:33;100300.69;;;25.93
64184;BMP280;50485;49.768;8.636;2022-08-20T07:15:01;100304.47;;;26.03
64184;BMP280;50485;49.768;8.636;2022-08-20T07:17:26;100304.09;;;26.04
64184;BMP280;50485;49.768;8.636;2022-08-20T07:19:51;100302.88;;;26.05
64184;BMP280;50485;49.768;8.636;2022-08-20T07:22:16;100304.44;;;26.06
64184;BMP280;50485;49.768;8.636;2022-08-20T07:24:42;100304.78;;;26.09
64184;BMP280;50485;49.768;8.636;2022-08-20T07:27:08;100301.25;;;26.12
64184;BMP280;50485;49.768;8.636;2022-08-20T07:29:33;100296.94;;;26.11
64184;BMP280;50485;49.768;8.636;2022-08-20T07:32:17;100298.13;;;26.10
64184;BMP280;50485;49.768;8.636;2022-08-20T07:35:01;100302.78;;;26.13
64184;BMP280;50485;49.768;8.636;2022-08-20T07:37:27;100301.25;;;26.12
64184;BMP280;50485;49.768;8.636;2022-08-20T07:39:52;100302.78;;;26.13
64184;BMP280;50485;49.768;8.636;2022-08-20T07:42:17;100301.25;;;26.12
64184;BMP280;50485;49.768;8.636;2022-08-20T07:44:43;100309.81;;;26.14
64184;BMP280;50485;49.768;8.636;2022-08-20T07:47:08;100316.50;;;26.13
64184;BMP280;50485;49.768;8.636;2022-08-20T07:49:36;100319.25;;;26.13
64184;BMP280;50485;49.768;8.636;2022-08-20T07:52:02;100321.22;;;26.12
64184;BMP280;50485;49.768;8.636;2022-08-20T07:54:28;100324.75;;;26.13
64184;BMP280;50485;49.768;8.636;2022-08-20T07:56:53;100323.22;;;26.12
64184;BMP280;50485;49.768;8.636;2022-08-20T07:59:19;100327.88;;;26.15
64184;BMP280;50485;49.768;8.636;2022-08-20T08:01:45;100320.41;;;26.15
64184;BMP280;50485;49.768;8.636;2022-08-20T08:04:10;100318.03;;;26.17
64184;BMP280;50485;49.768;8.636;2022-08-20T08:06:36;100321.97;;;26.16
64184;BMP280;50485;49.768;8.636;2022-08-20T08:09:04;100321.63;;;26.14
64184;BMP280;50485;49.768;8.636;2022-08-20T08:11:31;100332.94;;;26.16
64184;BMP280;50485;49.768;8.636;2022-08-20T08:13:57;100327.06;;;26.18
64184;BMP280;50485;49.768;8.636;2022-08-20T08:16:22;100334.88;;;26.19
64184;BMP280;50485;49.768;8.636;2022-08-20T08:18:49;100327.78;;;26.22
64184;BMP280;50485;49.768;8.636;2022-08-20T08:21:16;100334.78;;;26.26
64184;BMP280;50485;49.768;8.636;2022-08-20T08:23:42;100328.00;;;26.34
64184;BMP280;50485;49.768;8.636;2022-08-20T08:26:12;100328.63;;;26.46
64184;BMP280;50485;49.768;8.636;2022-08-20T08:28:38;100332.38;;;26.55
64184;BMP280;50485;49.768;8.636;2022-08-20T08:31:03;100329.69;;;26.52
64184;BMP280;50485;49.768;8.636;2022-08-20T08:33:29;100337.97;;;26.48
64184;BMP280;50485;49.768;8.636;2022-08-20T08:36:03;100338.41;;;26.47
64184;BMP280;50485;49.768;8.636;2022-08-20T08:38:30;100330.84;;;26.54
64184;BMP280;50485;49.768;8.636;2022-08-20T08:40:56;100327.22;;;26.61
64184;BMP280;50485;49.768;8.636;2022-08-20T08:43:23;100340.56;;;26.59
64184;BMP280;50485;49.768;8.636;2022-08-20T08:45:52;100333.47;;;26.61
64184;BMP280;50485;49.768;8.636;2022-08-20T08:48:18;100338.06;;;26.68
64184;BMP280;50485;49.768;8.636;2022-08-20T08:50:46;100335.66;;;26.74
64184;BMP280;50485;49.768;8.636;2022-08-20T08:53:20;100323.34;;;26.82
64184;BMP280;50485;49.768;8.636;2022-08-20T08:55:46;100338.53;;;26.90
64184;BMP280;50485;49.768;8.636;2022-08-20T08:58:11;100331.47;;;26.89
64184;BMP280;50485;49.768;8.636;2022-08-20T09:00:37;100330.25;;;27.13
64184;BMP280;50485;49.768;8.636;2022-08-20T09:03:04;100336.06;;;27.38
64184;BMP280;50485;49.768;8.636;2022-08-20T09:05:38;100333.97;;;27.46
64184;BMP280;50485;49.768;8.636;2022-08-20T09:08:06;100324.81;;;27.53
64184;BMP280;50485;49.768;8.636;2022-08-20T09:10:33;100333.97;;;27.46
64184;BMP280;50485;49.768;8.636;2022-08-20T09:12:58;100321.47;;;27.42
64184;BMP280;50485;49.768;8.636;2022-08-20T09:15:25;100322.69;;;27.41
64184;BMP280;50485;49.768;8.636;2022-08-20T09:17:50;100332.97;;;27.36
64184;BMP280;50485;49.768;8.636;2022-08-20T09:20:15;100334.47;;;27.41
64184;BMP280;50485;49.768;8.636;2022-08-20T09:22:42;100331.16;;;27.50
64184;BMP280;50485;49.768;8.636;2022-08-20T09:25:07;100344.19;;;27.46
64184;BMP280;50485;49.768;8.636;2022-08-20T09:27:32;100340.66;;;27.45
64184;BMP280;50485;49.768;8.636;2022-08-20T09:29:58;100332.63;;;27.74
64184;BMP280;50485;49.768;8.636;2022-08-20T09:32:23;100337.00;;;28.07
64184;BMP280;50485;49.768;8.636;2022-08-20T09:34:49;100354.16;;;28.51
64184;BMP280;50485;49.768;8.636;2022-08-20T09:37:23;100352.41;;;28.90
64184;BMP280;50485;49.768;8.636;2022-08-20T09:39:48;100350.69;;;29.25
64184;BMP280;50485;49.768;8.636;2022-08-20T09:42:18;100322.50;;;28.88
64184;BMP280;50485;49.768;8.636;2022-08-20T09:44:43;100344.97;;;29.03
64184;BMP280;50485;49.768;8.636;2022-08-20T09:47:08;100341.38;;;29.48
64184;BMP280;50485;49.768;8.636;2022-08-20T09:49:34;100334.00;;;29.28
64184;BMP280;50485;49.768;8.636;2022-08-20T09:52:02;100327.38;;;29.26
64184;BMP280;50485;49.768;8.636;2022-08-20T09:54:28;100300.59;;;29.39
64184;BMP280;50485;49.768;8.636;2022-08-20T09:56:55;100314.81;;;29.79
64184;BMP280;50485;49.768;8.636;2022-08-20T09:59:21;100306.56;;;29.92
64184;BMP280;50485;49.768;8.636;2022-08-20T10:01:46;100304.78;;;29.98
64184;BMP280;50485;49.768;8.636;2022-08-20T10:04:11;100311.81;;;30.24
64184;BMP280;50485;49.768;8.636;2022-08-20T10:06:40;100291.81;;;29.69
64184;BMP280;50485;49.768;8.636;2022-08-20T10:09:05;100285.38;;;29.05
64184;BMP280;50485;49.768;8.636;2022-08-20T10:11:30;100282.03;;;28.98
64184;BMP280;50485;49.768;8.636;2022-08-20T10:13:56;100283.75;;;30.13
64184;BMP280;50485;49.768;8.636;2022-08-20T10:16:21;100279.78;;;30.27
64184;BMP280;50485;49.768;8.636;2022-08-20T10:18:46;100269.41;;;29.93
64184;BMP280;50485;49.768;8.636;2022-08-20T10:21:13;100279.13;;;29.72
64184;BMP280;50485;49.768;8.636;2022-08-20T10:23:38;100268.03;;;29.47
64184;BMP280;50485;49.768;8.636;2022-08-20T10:26:03;100268.22;;;29.27
64184;BMP280;50485;49.768;8.636;2022-08-20T10:28:29;100267.03;;;29.28
64184;BMP280;50485;49.768;8.636;2022-08-20T10:30:54;100254.34;;;29.30
64184;BMP280;50485;49.768;8.636;2022-08-20T10:33:19;100266.25;;;29.27
64184;BMP280;50485;49.768;8.636;2022-08-20T10:35:44;100268.13;;;29.30
64184;BMP280;50485;49.768;8.636;2022-08-20T10:38:10;100266.13;;;29.31
64184;BMP280;50485;49.768;8.636;2022-08-20T10:40:35;100258.84;;;29.24
64184;BMP280;50485;49.768;8.636;2022-08-20T10:43:00;100251.44;;;29.21
64184;BMP280;50485;49.768;8.636;2022-08-20T10:45:26;100256.72;;;29.28
64184;BMP280;50485;49.768;8.636;2022-08-20T10:47:51;100260.16;;;29.32
64184;BMP280;50485;49.768;8.636;2022-08-20T10:50:16;100263.25;;;29.22
64184;BMP280;50485;49.768;8.636;2022-08-20T10:52:43;100256.41;;;29.26
64184;BMP280;50485;49.768;8.636;2022-08-20T10:55:09;100255.41;;;29.20
64184;BMP280;50485;49.768;8.636;2022-08-20T10:57:34;100247.34;;;29.26
64184;BMP280;50485;49.768;8.636;2022-08-20T11:00:02;100249.31;;;29.25
64184;BMP280;50485;49.768;8.636;2022-08-20T11:02:28;100251.22;;;29.28
64184;BMP280;50485;49.768;8.636;2022-08-20T11:04:53;100256.53;;;29.35
64184;BMP280;50485;49.768;8.636;2022-08-20T11:07:20;100250.69;;;29.33
64184;BMP280;50485;49.768;8.636;2022-08-20T11:09:48;100254.97;;;29.34
64184;BMP280;50485;49.768;8.636;2022-08-20T11:12:14;100261.38;;;29.31
64184;BMP280;50485;49.768;8.636;2022-08-20T11:14:40;100253.34;;;29.37
64184;BMP280;50485;49.768;8.636;2022-08-20T11:17:05;100256.88;;;29.37
64184;BMP280;50485;49.768;8.636;2022-08-20T11:19:30;100255.44;;;29.33
64184;BMP280;50485;49.768;8.636;2022-08-20T11:21:56;100246.94;;;29.27
64184;BMP280;50485;49.768;8.636;2022-08-20T11:24:21;100248.44;;;29.28
64184;BMP280;50485;49.768;8.636;2022-08-20T11:26:46;100247.94;;;29.33
64184;BMP280;50485;49.768;8.636;2022-08-20T11:29:12;100251.22;;;29.28
64184;BMP280;50485;49.768;8.636;2022-08-20T11:31:37;100248.44;;;29.28
64184;BMP280;50485;49.768;8.636;2022-08-20T11:34:03;100240.16;;;29.28
64184;BMP280;50485;49.768;8.636;2022-08-20T11:36:28;100245.69;;;29.28
64184;BMP280;50485;49.768;8.636;2022-08-20T11:38:53;100237.78;;;29.30
64184;BMP280;50485;49.768;8.636;2022-08-20T11:41:18;100248.81;;;29.30
64184;BMP280;50485;49.768;8.636;2022-08-20T11:43:44;100247.81;;;29.24
64184;BMP280;50485;49.768;8.636;2022-08-20T11:46:10;100238.84;;;29.20
64184;BMP280;50485;49.768;8.636;2022-08-20T11:48:35;100238.84;;;29.20
64184;BMP280;50485;49.768;8.636;2022-08-20T11:51:00;100239.63;;;29.21
64184;BMP280;50485;49.768;8.636;2022-08-20T11:53:26;100233.75;;;29.19
64184;BMP280;50485;49.768;8.636;2022-08-20T11:55:51;100238.16;;;29.16
64184;BMP280;50485;49.768;8.636;2022-08-20T11:58:16;100235.06;;;29.14
64184;BMP280;50485;49.768;8.636;2022-08-20T12:00:42;100236.97;;;29.17
64184;BMP280;50485;49.768;8.636;2022-08-20T12:03:07;100232.66;;;29.16
64184;BMP280;50485;49.768;8.636;2022-08-20T12:05:33;100225.00;;;29.07
64184;BMP280;50485;49.768;8.636;2022-08-20T12:08:01;100224.59;;;29.09
64184;BMP280;50485;49.768;8.636;2022-08-20T12:10:26;100232.00;;;29.12
64184;BMP280;50485;49.768;8.636;2022-08-20T12:12:52;100221.28;;;29.14
64184;BMP280;50485;49.768;8.636;2022-08-20T12:15:17;100220.50;;;29.14
64184;BMP280;50485;49.768;8.636;2022-08-20T12:17:43;100216.97;;;29.13
64184;BMP280;50485;49.768;8.636;2022-08-20T12:20:09;100211.56;;;29.09
64184;BMP280;50485;49.768;8.636;2022-08-20T12:22:35;100213.44;;;29.13
64184;BMP280;50485;49.768;8.636;2022-08-20T12:25:00;100216.97;;;29.13
64184;BMP280;50485;49.768;8.636;2022-08-20T12:27:26;100215.44;;;29.12
64184;BMP280;50485;49.768;8.636;2022-08-20T12:29:53;100217.84;;;29.10
64184;BMP280;50485;49.768;8.636;2022-08-20T12:32:22;100212.78;;;29.08
64184;BMP280;50485;49.768;8.636;2022-08-20T12:34:48;100207.16;;;29.12
64184;BMP280;50485;49.768;8.636;2022-08-20T12:37:14;100209.13;;;29.12
64184;BMP280;50485;49.768;8.636;2022-08-20T12:39:40;100206.81;;;29.10
64184;BMP280;50485;49.768;8.636;2022-08-20T12:42:06;100214.44;;;29.19
64184;BMP280;50485;49.768;8.636;2022-08-20T12:44:31;100198.22;;;29.21
64184;BMP280;50485;49.768;8.636;2022-08-20T12:47:06;100200.97;;;29.21
64184;BMP280;50485;49.768;8.636;2022-08-20T12:49:32;100194.13;;;29.13
64184;BMP280;50485;49.768;8.636;2022-08-20T12:51:57;100203.59;;;29.12
64184;BMP280;50485;49.768;8.636;2022-08-20T12:54:22;100197.88;;;29.06
64184;BMP280;50485;49.768;8.636;2022-08-20T12:56:47;100195.78;;;29.10
64184;BMP280;50485;49.768;8.636;2022-08-20T12:59:12;100195.31;;;29.12
64184;BMP280;50485;49.768;8.636;2022-08-20T13:01:38;100194.53;;;29.11
64184;BMP280;50485;49.768;8.636;2022-08-20T13:04:03;100193.25;;;29.16
64184;BMP280;50485;49.768;8.636;2022-08-20T13:06:28;100195.13;;;29.19
64184;BMP280;50485;49.768;8.636;2022-08-20T13:08:53;100192.22;;;29.22
64184;BMP280;50485;49.768;8.636;2022-08-20T13:11:18;100194.78;;;29.17
64184;BMP280;50485;49.768;8.636;2022-08-20T13:13:43;100197.31;;;29.11
64184;BMP280;50485;49.768;8.636;2022-08-20T13:16:11;100193.78;;;29.10
64184;BMP280;50485;49.768;8.636;2022-08-20T13:18:36;100190.28;;;29.10
64184;BMP280;50485;49.768;8.636;2022-08-20T13:21:01;100191.25;;;29.16
64184;BMP280;50485;49.768;8.636;2022-08-20T13:23:27;100177.13;;;29.14
64184;BMP280;50485;49.768;8.636;2022-08-20T13:25:52;100175.13;;;29.15
64184;BMP280;50485;49.768;8.636;2022-08-20T13:28:17;100168.94;;;29.10
64184;BMP280;50485;49.768;8.636;2022-08-20T13:30:42;100178.09;;;29.07
64184;BMP280;50485;49.768;8.636;2022-08-20T13:33:07;100173.91;;;29.03
64184;BMP280;50485;49.768;8.636;2022-08-20T13:35:33;100175.13;;;29.02
64184;BMP280;50485;49.768;8.636;2022-08-20T13:37:58;100171.69;;;28.98
64184;BMP280;50485;49.768;8.636;2022-08-20T13:40:23;100172.34;;;29.02
64184;BMP280;50485;49.768;8.636;2022-08-20T13:42:49;100162.41;;;29.04
64184;BMP280;50485;49.768;8.636;2022-08-20T13:45:14;100176.47;;;29.10
64184;BMP280;50485;49.768;8.636;2022-08-20T13:47:40;100161.91;;;29.09
64184;BMP280;50485;49.768;8.636;2022-08-20T13:50:12;100163.88;;;29.09
64184;BMP280;50485;49.768;8.636;2022-08-20T13:52:38;100160.41;;;29.05
64184;BMP280;50485;49.768;8.636;2022-08-20T13:55:04;100160.41;;;29.05
64184;BMP280;50485;49.768;8.636;2022-08-20T13:57:30;100169.25;;;29.00
64184;BMP280;50485;49.768;8.636;2022-08-20T13:59:56;100162.88;;;29.03